sensor_id;sensor_type;location;lat;lon;timestamp;P1;durP1;ratioP1;P2;durP2;ratioP2
10481;SDS011;5288;42.334;23.876;2023-06-24T00:00:40;16.17;;;12.40;;
10481;SDS011;5288;42.334;23.876;2023-06-24T00:03:08;12.80;;;11.57;;
10481;SDS011;5288;42.334;23.876;2023-06-24T00:05:37;13.67;;;12.37;;
10481;SDS011;5288;42.334;23.876;2023-06-24T00:08:04;14.13;;;12.40;;
10481;SDS011;5288;42.334;23.876;2023-06-24T00:10:32;12.67;;;11.47;;
10481;SDS011;5288;42.334;23.876;2023-06-24T00:12:59;13.17;;;11.87;;
10481;SDS011;5288;42.334;23.876;2023-06-24T00:15:27;12.40;;;10.97;;
10481;SDS011;5288;42.334;23.876;2023-06-24T00:17:55;12.23;;;11.03;;
10481;SDS011;5288;42.334;23.876;2023-06-24T00:20:30;12.30;;;11.17;;
10481;SDS011;5288;42.334;23.876;2023-06-24T00:22:57;13.80;;;12.00;;
10481;SDS011;5288;42.334;23.876;2023-06-24T00:25:24;12.23;;;11.13;;
10481;SDS011;5288;42.334;23.876;2023-06-24T00:27:51;12.93;;;11.63;;
10481;SDS011;5288;42.334;23.876;2023-06-24T00:30:18;12.90;;;11.80;;
10481;SDS011;5288;42.334;23.876;2023-06-24T00:32:45;15.63;;;11.63;;
10481;SDS011;5288;42.334;23.876;2023-06-24T00:35:14;14.33;;;12.80;;
10481;SDS011;5288;42.334;23.876;2023-06-24T00:37:41;13.13;;;11.83;;
10481;SDS011;5288;42.334;23.876;2023-06-24T00:40:10;13.43;;;12.03;;
10481;SDS011;5288;42.334;23.876;2023-06-24T00:42:40;16.10;;;12.90;;
10481;SDS011;5288;42.334;23.876;2023-06-24T00:45:07;13.37;;;12.17;;
10481;SDS011;5288;42.334;23.876;2023-06-24T00:47:36;13.83;;;12.60;;
10481;SDS011;5288;42.334;23.876;2023-06-24T00:50:04;13.47;;;12.17;;
10481;SDS011;5288;42.334;23.876;2023-06-24T00:52:33;13.40;;;12.10;;
10481;SDS011;5288;42.334;23.876;2023-06-24T00:55:02;13.87;;;12.37;;
10481;SDS011;5288;42.334;23.876;2023-06-24T00:57:30;15.33;;;12.80;;
10481;SDS011;5288;42.334;23.876;2023-06-24T00:59:57;14.23;;;12.73;;
10481;SDS011;5288;42.334;23.876;2023-06-24T01:02:25;13.53;;;12.17;;
10481;SDS011;5288;42.334;23.876;2023-06-24T01:04:53;13.70;;;12.37;;
10481;SDS011;5288;42.334;23.876;2023-06-24T01:07:20;13.13;;;11.90;;
10481;SDS011;5288;42.334;23.876;2023-06-24T01:09:49;15.23;;;11.90;;
10481;SDS011;5288;42.334;23.876;2023-06-24T01:12:16;13.40;;;12.10;;
10481;SDS011;5288;42.334;23.876;2023-06-24T01:14:43;13.37;;;12.07;;
10481;SDS011;5288;42.334;23.876;2023-06-24T01:17:12;14.50;;;12.40;;
10481;SDS011;5288;42.334;23.876;2023-06-24T01:19:50;13.40;;;12.20;;
10481;SDS011;5288;42.334;23.876;2023-06-24T01:22:33;14.03;;;12.83;;
10481;SDS011;5288;42.334;23.876;2023-06-24T01:25:23;13.63;;;12.23;;
10481;SDS011;5288;42.334;23.876;2023-06-24T01:28:05;13.73;;;12.33;;
10481;SDS011;5288;42.334;23.876;2023-06-24T01:30:50;13.67;;;12.27;;
10481;SDS011;5288;42.334;23.876;2023-06-24T01:33:35;13.80;;;12.30;;
10481;SDS011;5288;42.334;23.876;2023-06-24T01:36:08;15.90;;;12.20;;
10481;SDS011;5288;42.334;23.876;2023-06-24T01:38:40;13.37;;;12.17;;
10481;SDS011;5288;42.334;23.876;2023-06-24T01:41:13;13.77;;;12.40;;
10481;SDS011;5288;42.334;23.876;2023-06-24T01:43:45;13.03;;;11.63;;
10481;SDS011;5288;42.334;23.876;2023-06-24T01:46:14;14.57;;;13.13;;
10481;SDS011;5288;42.334;23.876;2023-06-24T01:48:49;15.23;;;11.60;;
10481;SDS011;5288;42.334;23.876;2023-06-24T01:51:19;21.37;;;12.60;;
10481;SDS011;5288;42.334;23.876;2023-06-24T01:53:48;14.60;;;12.83;;
10481;SDS011;5288;42.334;23.876;2023-06-24T01:56:18;13.60;;;12.40;;
10481;SDS011;5288;42.334;23.876;2023-06-24T01:58:50;14.13;;;12.73;;
10481;SDS011;5288;42.334;23.876;2023-06-24T02:01:18;13.93;;;12.33;;
10481;SDS011;5288;42.334;23.876;2023-06-24T02:03:47;13.03;;;11.73;;
10481;SDS011;5288;42.334;23.876;2023-06-24T02:06:17;18.43;;;12.53;;
10481;SDS011;5288;42.334;23.876;2023-06-24T02:08:48;14.47;;;12.77;;
10481;SDS011;5288;42.334;23.876;2023-06-24T02:11:17;13.43;;;12.23;;
10481;SDS011;5288;42.334;23.876;2023-06-24T02:13:45;14.10;;;12.50;;
10481;SDS011;5288;42.334;23.876;2023-06-24T02:16:12;16.30;;;13.30;;
10481;SDS011;5288;42.334;23.876;2023-06-24T02:18:40;15.00;;;13.30;;
10481;SDS011;5288;42.334;23.876;2023-06-24T02:21:10;14.47;;;12.60;;
10481;SDS011;5288;42.334;23.876;2023-06-24T02:23:38;13.60;;;12.10;;
10481;SDS011;5288;42.334;23.876;2023-06-24T02:26:06;14.03;;;12.77;;
10481;SDS011;5288;42.334;23.876;2023-06-24T02:28:34;14.70;;;13.37;;
10481;SDS011;5288;42.334;23.876;2023-06-24T02:31:02;13.67;;;12.40;;
10481;SDS011;5288;42.334;23.876;2023-06-24T02:33:30;14.27;;;11.73;;
10481;SDS011;5288;42.334;23.876;2023-06-24T02:35:58;15.53;;;13.30;;
10481;SDS011;5288;42.334;23.876;2023-06-24T02:38:26;14.53;;;12.70;;
10481;SDS011;5288;42.334;23.876;2023-06-24T02:40:53;15.63;;;13.33;;
10481;SDS011;5288;42.334;23.876;2023-06-24T02:43:21;13.73;;;12.37;;
10481;SDS011;5288;42.334;23.876;2023-06-24T02:45:49;14.17;;;12.67;;
10481;SDS011;5288;42.334;23.876;2023-06-24T02:48:17;15.60;;;12.23;;
10481;SDS011;5288;42.334;23.876;2023-06-24T02:50:46;14.23;;;12.90;;
10481;SDS011;5288;42.334;23.876;2023-06-24T02:53:14;13.83;;;12.37;;
10481;SDS011;5288;42.334;23.876;2023-06-24T02:55:43;14.33;;;12.93;;
10481;SDS011;5288;42.334;23.876;2023-06-24T02:58:12;14.07;;;12.70;;
10481;SDS011;5288;42.334;23.876;2023-06-24T03:00:39;13.77;;;12.47;;
10481;SDS011;5288;42.334;23.876;2023-06-24T03:03:07;16.10;;;13.13;;
10481;SDS011;5288;42.334;23.876;2023-06-24T03:05:34;14.23;;;12.77;;
10481;SDS011;5288;42.334;23.876;2023-06-24T03:08:02;14.40;;;12.00;;
10481;SDS011;5288;42.334;23.876;2023-06-24T03:10:30;13.47;;;12.17;;
10481;SDS011;5288;42.334;23.876;2023-06-24T03:12:58;14.73;;;12.30;;
10481;SDS011;5288;42.334;23.876;2023-06-24T03:15:25;13.73;;;12.30;;
10481;SDS011;5288;42.334;23.876;2023-06-24T03:17:53;14.27;;;12.47;;
10481;SDS011;5288;42.334;23.876;2023-06-24T03:20:21;15.10;;;13.37;;
10481;SDS011;5288;42.334;23.876;2023-06-24T03:22:49;13.50;;;12.10;;
10481;SDS011;5288;42.334;23.876;2023-06-24T03:25:17;14.33;;;12.83;;
10481;SDS011;5288;42.334;23.876;2023-06-24T03:27:44;14.27;;;12.80;;
10481;SDS011;5288;42.334;23.876;2023-06-24T03:30:13;14.73;;;13.40;;
10481;SDS011;5288;42.334;23.876;2023-06-24T03:32:40;13.77;;;12.47;;
10481;SDS011;5288;42.334;23.876;2023-06-24T03:35:12;14.33;;;12.90;;
10481;SDS011;5288;42.334;23.876;2023-06-24T03:37:39;14.37;;;12.57;;
10481;SDS011;5288;42.334;23.876;2023-06-24T03:40:07;16.17;;;13.10;;
10481;SDS011;5288;42.334;23.876;2023-06-24T03:42:34;14.03;;;12.80;;
10481;SDS011;5288;42.334;23.876;2023-06-24T03:45:02;14.27;;;12.87;;
10481;SDS011;5288;42.334;23.876;2023-06-24T03:47:31;14.17;;;12.77;;
10481;SDS011;5288;42.334;23.876;2023-06-24T03:49:58;15.93;;;14.03;;
10481;SDS011;5288;42.334;23.876;2023-06-24T03:52:25;14.53;;;12.93;;
10481;SDS011;5288;42.334;23.876;2023-06-24T03:54:52;14.93;;;13.47;;
10481;SDS011;5288;42.334;23.876;2023-06-24T03:57:19;14.80;;;13.17;;
10481;SDS011;5288;42.334;23.876;2023-06-24T03:59:47;15.77;;;12.77;;
10481;SDS011;5288;42.334;23.876;2023-06-24T04:02:14;14.77;;;13.40;;
10481;SDS011;5288;42.334;23.876;2023-06-24T04:04:44;15.10;;;13.67;;
10481;SDS011;5288;42.334;23.876;2023-06-24T04:07:11;47.53;;;23.23;;
10481;SDS011;5288;42.334;23.876;2023-06-24T04:09:39;14.57;;;13.17;;
10481;SDS011;5288;42.334;23.876;2023-06-24T04:12:06;18.27;;;15.07;;
10481;SDS011;5288;42.334;23.876;2023-06-24T04:14:33;14.80;;;13.30;;
10481;SDS011;5288;42.334;23.876;2023-06-24T04:17:00;14.87;;;13.37;;
10481;SDS011;5288;42.334;23.876;2023-06-24T04:19:28;19.37;;;16.07;;
10481;SDS011;5288;42.334;23.876;2023-06-24T04:21:56;14.93;;;13.43;;
10481;SDS011;5288;42.334;23.876;2023-06-24T04:24:23;14.60;;;13.20;;
10481;SDS011;5288;42.334;23.876;2023-06-24T04:26:50;15.43;;;13.93;;
10481;SDS011;5288;42.334;23.876;2023-06-24T04:29:17;16.37;;;14.33;;
10481;SDS011;5288;42.334;23.876;2023-06-24T04:31:44;22.37;;;14.20;;
10481;SDS011;5288;42.334;23.876;2023-06-24T04:34:11;15.87;;;14.37;;
10481;SDS011;5288;42.334;23.876;2023-06-24T04:36:38;15.73;;;14.13;;
10481;SDS011;5288;42.334;23.876;2023-06-24T04:39:06;14.90;;;13.50;;
10481;SDS011;5288;42.334;23.876;2023-06-24T04:41:33;17.80;;;13.90;;
10481;SDS011;5288;42.334;23.876;2023-06-24T04:44:00;14.17;;;12.77;;
10481;SDS011;5288;42.334;23.876;2023-06-24T04:46:27;14.07;;;12.57;;
10481;SDS011;5288;42.334;23.876;2023-06-24T04:48:54;14.77;;;13.27;;
10481;SDS011;5288;42.334;23.876;2023-06-24T04:51:22;15.00;;;13.47;;
10481;SDS011;5288;42.334;23.876;2023-06-24T04:53:49;15.20;;;13.70;;
10481;SDS011;5288;42.334;23.876;2023-06-24T04:56:22;14.33;;;12.83;;
10481;SDS011;5288;42.334;23.876;2023-06-24T04:58:56;15.00;;;13.60;;
10481;SDS011;5288;42.334;23.876;2023-06-24T05:01:33;15.23;;;13.83;;
10481;SDS011;5288;42.334;23.876;2023-06-24T05:04:01;16.23;;;13.70;;
10481;SDS011;5288;42.334;23.876;2023-06-24T05:06:33;15.20;;;12.87;;
10481;SDS011;5288;42.334;23.876;2023-06-24T05:09:00;16.30;;;13.27;;
10481;SDS011;5288;42.334;23.876;2023-06-24T05:11:29;14.80;;;12.50;;
10481;SDS011;5288;42.334;23.876;2023-06-24T05:13:56;16.70;;;14.97;;
10481;SDS011;5288;42.334;23.876;2023-06-24T05:16:23;16.17;;;14.20;;
10481;SDS011;5288;42.334;23.876;2023-06-24T05:18:50;14.87;;;13.43;;
10481;SDS011;5288;42.334;23.876;2023-06-24T05:21:17;15.03;;;13.53;;
10481;SDS011;5288;42.334;23.876;2023-06-24T05:23:44;15.17;;;13.57;;
10481;SDS011;5288;42.334;23.876;2023-06-24T05:26:11;14.57;;;13.13;;
10481;SDS011;5288;42.334;23.876;2023-06-24T05:28:40;13.40;;;12.10;;
10481;SDS011;5288;42.334;23.876;2023-06-24T05:31:07;25.20;;;13.17;;
10481;SDS011;5288;42.334;23.876;2023-06-24T05:33:34;32.00;;;14.07;;
10481;SDS011;5288;42.334;23.876;2023-06-24T05:36:01;19.33;;;13.47;;
10481;SDS011;5288;42.334;23.876;2023-06-24T05:38:28;19.03;;;12.83;;
10481;SDS011;5288;42.334;23.876;2023-06-24T05:40:55;19.23;;;11.40;;
10481;SDS011;5288;42.334;23.876;2023-06-24T05:43:22;12.93;;;11.53;;
10481;SDS011;5288;42.334;23.876;2023-06-24T05:45:50;13.23;;;11.03;;
10481;SDS011;5288;42.334;23.876;2023-06-24T05:48:17;13.10;;;11.63;;
10481;SDS011;5288;42.334;23.876;2023-06-24T05:50:45;14.10;;;11.83;;
10481;SDS011;5288;42.334;23.876;2023-06-24T05:53:12;15.53;;;11.27;;
10481;SDS011;5288;42.334;23.876;2023-06-24T05:55:39;12.57;;;11.33;;
10481;SDS011;5288;42.334;23.876;2023-06-24T05:58:05;11.63;;;10.63;;
10481;SDS011;5288;42.334;23.876;2023-06-24T06:00:32;13.97;;;11.43;;
10481;SDS011;5288;42.334;23.876;2023-06-24T06:03:01;11.97;;;10.97;;
10481;SDS011;5288;42.334;23.876;2023-06-24T06:05:28;12.20;;;10.93;;
10481;SDS011;5288;42.334;23.876;2023-06-24T06:07:55;12.10;;;10.90;;
10481;SDS011;5288;42.334;23.876;2023-06-24T06:10:22;10.87;;;9.90;;
10481;SDS011;5288;42.334;23.876;2023-06-24T06:12:49;11.40;;;10.27;;
10481;SDS011;5288;42.334;23.876;2023-06-24T06:15:18;11.70;;;10.07;;
10481;SDS011;5288;42.334;23.876;2023-06-24T06:17:45;12.13;;;10.80;;
10481;SDS011;5288;42.334;23.876;2023-06-24T06:20:13;13.10;;;11.73;;
10481;SDS011;5288;42.334;23.876;2023-06-24T06:22:40;14.40;;;12.03;;
10481;SDS011;5288;42.334;23.876;2023-06-24T06:25:07;16.80;;;11.17;;
10481;SDS011;5288;42.334;23.876;2023-06-24T06:27:35;12.80;;;11.20;;
10481;SDS011;5288;42.334;23.876;2023-06-24T06:30:03;17.73;;;12.10;;
10481;SDS011;5288;42.334;23.876;2023-06-24T06:32:31;12.33;;;10.83;;
10481;SDS011;5288;42.334;23.876;2023-06-24T06:34:58;12.23;;;10.50;;
10481;SDS011;5288;42.334;23.876;2023-06-24T06:37:26;13.80;;;10.50;;
10481;SDS011;5288;42.334;23.876;2023-06-24T06:39:53;14.77;;;9.80;;
10481;SDS011;5288;42.334;23.876;2023-06-24T06:42:20;13.87;;;10.73;;
10481;SDS011;5288;42.334;23.876;2023-06-24T06:44:47;11.43;;;10.37;;
10481;SDS011;5288;42.334;23.876;2023-06-24T06:47:14;21.07;;;10.60;;
10481;SDS011;5288;42.334;23.876;2023-06-24T06:49:42;13.43;;;10.33;;
10481;SDS011;5288;42.334;23.876;2023-06-24T06:52:09;10.80;;;9.80;;
10481;SDS011;5288;42.334;23.876;2023-06-24T06:54:37;11.97;;;10.83;;
10481;SDS011;5288;42.334;23.876;2023-06-24T06:57:05;11.13;;;10.00;;
10481;SDS011;5288;42.334;23.876;2023-06-24T06:59:32;11.97;;;10.87;;
10481;SDS011;5288;42.334;23.876;2023-06-24T07:02:00;11.27;;;10.10;;
10481;SDS011;5288;42.334;23.876;2023-06-24T07:04:27;17.17;;;9.70;;
10481;SDS011;5288;42.334;23.876;2023-06-24T07:06:54;9.93;;;8.93;;
10481;SDS011;5288;42.334;23.876;2023-06-24T07:09:21;10.57;;;9.57;;
10481;SDS011;5288;42.334;23.876;2023-06-24T07:11:49;10.43;;;9.40;;
10481;SDS011;5288;42.334;23.876;2023-06-24T07:14:16;9.70;;;8.77;;
10481;SDS011;5288;42.334;23.876;2023-06-24T07:16:44;9.77;;;8.87;;
10481;SDS011;5288;42.334;23.876;2023-06-24T07:19:11;11.80;;;9.20;;
10481;SDS011;5288;42.334;23.876;2023-06-24T07:21:38;9.67;;;8.70;;
10481;SDS011;5288;42.334;23.876;2023-06-24T07:24:05;10.23;;;9.13;;
10481;SDS011;5288;42.334;23.876;2023-06-24T07:26:32;10.40;;;9.43;;
10481;SDS011;5288;42.334;23.876;2023-06-24T07:29:01;9.97;;;8.97;;
10481;SDS011;5288;42.334;23.876;2023-06-24T07:31:28;10.37;;;9.30;;
10481;SDS011;5288;42.334;23.876;2023-06-24T07:33:55;11.10;;;9.17;;
10481;SDS011;5288;42.334;23.876;2023-06-24T07:36:22;9.53;;;8.37;;
10481;SDS011;5288;42.334;23.876;2023-06-24T07:38:49;8.90;;;8.17;;
10481;SDS011;5288;42.334;23.876;2023-06-24T07:41:16;11.63;;;8.97;;
10481;SDS011;5288;42.334;23.876;2023-06-24T07:43:43;12.77;;;8.43;;
10481;SDS011;5288;42.334;23.876;2023-06-24T07:46:11;14.00;;;9.10;;
10481;SDS011;5288;42.334;23.876;2023-06-24T07:48:38;12.48;;;9.30;;
10481;SDS011;5288;42.334;23.876;2023-06-24T07:51:05;12.97;;;8.40;;
10481;SDS011;5288;42.334;23.876;2023-06-24T07:53:32;9.60;;;8.80;;
10481;SDS011;5288;42.334;23.876;2023-06-24T07:55:59;13.23;;;8.77;;
10481;SDS011;5288;42.334;23.876;2023-06-24T07:58:26;16.77;;;9.23;;
10481;SDS011;5288;42.334;23.876;2023-06-24T08:00:53;15.38;;;8.45;;
10481;SDS011;5288;42.334;23.876;2023-06-24T08:03:22;10.98;;;9.02;;
10481;SDS011;5288;42.334;23.876;2023-06-24T08:05:49;9.43;;;8.13;;
10481;SDS011;5288;42.334;23.876;2023-06-24T08:08:16;10.30;;;8.05;;
10481;SDS011;5288;42.334;23.876;2023-06-24T08:10:44;8.85;;;8.05;;
10481;SDS011;5288;42.334;23.876;2023-06-24T08:13:11;8.32;;;7.63;;
10481;SDS011;5288;42.334;23.876;2023-06-24T08:15:38;8.63;;;7.68;;
10481;SDS011;5288;42.334;23.876;2023-06-24T08:18:05;9.15;;;8.27;;
10481;SDS011;5288;42.334;23.876;2023-06-24T08:20:34;9.02;;;8.23;;
10481;SDS011;5288;42.334;23.876;2023-06-24T08:23:01;7.97;;;7.28;;
10481;SDS011;5288;42.334;23.876;2023-06-24T08:25:28;7.70;;;6.88;;
10481;SDS011;5288;42.334;23.876;2023-06-24T08:27:55;9.98;;;7.60;;
10481;SDS011;5288;42.334;23.876;2023-06-24T08:30:22;8.18;;;7.45;;
10481;SDS011;5288;42.334;23.876;2023-06-24T08:32:49;8.93;;;7.32;;
10481;SDS011;5288;42.334;23.876;2023-06-24T08:35:16;9.27;;;7.80;;
10481;SDS011;5288;42.334;23.876;2023-06-24T08:37:45;8.43;;;7.68;;
10481;SDS011;5288;42.334;23.876;2023-06-24T08:40:12;10.68;;;7.60;;
10481;SDS011;5288;42.334;23.876;2023-06-24T08:42:39;8.27;;;7.18;;
10481;SDS011;5288;42.334;23.876;2023-06-24T08:45:06;8.20;;;7.40;;
10481;SDS011;5288;42.334;23.876;2023-06-24T08:47:34;8.18;;;7.35;;
10481;SDS011;5288;42.334;23.876;2023-06-24T08:50:02;8.55;;;7.75;;
10481;SDS011;5288;42.334;23.876;2023-06-24T08:52:31;8.80;;;7.60;;
10481;SDS011;5288;42.334;23.876;2023-06-24T08:55:02;8.65;;;7.10;;
10481;SDS011;5288;42.334;23.876;2023-06-24T08:57:32;7.70;;;6.63;;
10481;SDS011;5288;42.334;23.876;2023-06-24T08:59:59;8.10;;;7.30;;
10481;SDS011;5288;42.334;23.876;2023-06-24T09:02:27;8.27;;;7.53;;
10481;SDS011;5288;42.334;23.876;2023-06-24T09:04:54;7.10;;;6.50;;
10481;SDS011;5288;42.334;23.876;2023-06-24T09:07:27;9.80;;;6.80;;
10481;SDS011;5288;42.334;23.876;2023-06-24T09:09:55;8.73;;;7.22;;
10481;SDS011;5288;42.334;23.876;2023-06-24T09:12:23;7.75;;;7.05;;
10481;SDS011;5288;42.334;23.876;2023-06-24T09:14:51;10.80;;;7.35;;
10481;SDS011;5288;42.334;23.876;2023-06-24T09:17:18;13.63;;;7.68;;
10481;SDS011;5288;42.334;23.876;2023-06-24T09:19:47;11.63;;;7.72;;
10481;SDS011;5288;42.334;23.876;2023-06-24T09:22:14;7.72;;;6.72;;
10481;SDS011;5288;42.334;23.876;2023-06-24T09:24:43;11.70;;;7.25;;
10481;SDS011;5288;42.334;23.876;2023-06-24T09:27:12;8.32;;;6.82;;
10481;SDS011;5288;42.334;23.876;2023-06-24T09:29:42;8.48;;;7.38;;
10481;SDS011;5288;42.334;23.876;2023-06-24T09:32:09;8.80;;;6.95;;
10481;SDS011;5288;42.334;23.876;2023-06-24T09:34:37;8.10;;;7.28;;
10481;SDS011;5288;42.334;23.876;2023-06-24T09:37:05;8.10;;;7.30;;
10481;SDS011;5288;42.334;23.876;2023-06-24T09:39:35;8.32;;;7.35;;
10481;SDS011;5288;42.334;23.876;2023-06-24T09:42:03;9.35;;;7.78;;
10481;SDS011;5288;42.334;23.876;2023-06-24T09:44:32;8.65;;;7.78;;
10481;SDS011;5288;42.334;23.876;2023-06-24T09:47:01;9.85;;;8.18;;
10481;SDS011;5288;42.334;23.876;2023-06-24T09:49:28;15.02;;;8.65;;
10481;SDS011;5288;42.334;23.876;2023-06-24T09:51:56;10.52;;;8.30;;
10481;SDS011;5288;42.334;23.876;2023-06-24T09:54:24;8.60;;;7.80;;
10481;SDS011;5288;42.334;23.876;2023-06-24T09:56:53;8.50;;;7.78;;
10481;SDS011;5288;42.334;23.876;2023-06-24T09:59:24;9.50;;;7.90;;
10481;SDS011;5288;42.334;23.876;2023-06-24T10:01:53;8.60;;;7.80;;
10481;SDS011;5288;42.334;23.876;2023-06-24T10:04:23;8.77;;;8.02;;
10481;SDS011;5288;42.334;23.876;2023-06-24T10:06:51;9.20;;;8.07;;
10481;SDS011;5288;42.334;23.876;2023-06-24T10:09:18;8.38;;;7.60;;
10481;SDS011;5288;42.334;23.876;2023-06-24T10:11:45;9.88;;;7.85;;
10481;SDS011;5288;42.334;23.876;2023-06-24T10:14:13;8.25;;;7.50;;
10481;SDS011;5288;42.334;23.876;2023-06-24T10:16:41;8.15;;;7.45;;
10481;SDS011;5288;42.334;23.876;2023-06-24T10:19:08;8.65;;;7.80;;
10481;SDS011;5288;42.334;23.876;2023-06-24T10:21:47;9.15;;;8.25;;
10481;SDS011;5288;42.334;23.876;2023-06-24T10:24:27;8.32;;;7.63;;
10481;SDS011;5288;42.334;23.876;2023-06-24T10:27:00;8.60;;;7.85;;
10481;SDS011;5288;42.334;23.876;2023-06-24T10:29:31;7.63;;;6.97;;
10481;SDS011;5288;42.334;23.876;2023-06-24T10:32:05;8.48;;;7.78;;
10481;SDS011;5288;42.334;23.876;2023-06-24T10:34:34;9.82;;;7.72;;
10481;SDS011;5288;42.334;23.876;2023-06-24T10:37:09;8.32;;;7.63;;
10481;SDS011;5288;42.334;23.876;2023-06-24T10:39:50;11.05;;;7.82;;
10481;SDS011;5288;42.334;23.876;2023-06-24T10:42:38;9.35;;;8.43;;
10481;SDS011;5288;42.334;23.876;2023-06-24T10:45:13;12.55;;;7.88;;
10481;SDS011;5288;42.334;23.876;2023-06-24T10:47:43;8.90;;;7.82;;
10481;SDS011;5288;42.334;23.876;2023-06-24T10:50:11;9.52;;;8.25;;
10481;SDS011;5288;42.334;23.876;2023-06-24T10:52:41;8.45;;;7.35;;
10481;SDS011;5288;42.334;23.876;2023-06-24T10:55:09;8.50;;;7.82;;
10481;SDS011;5288;42.334;23.876;2023-06-24T10:57:39;8.70;;;8.00;;
10481;SDS011;5288;42.334;23.876;2023-06-24T11:00:06;8.65;;;7.95;;
10481;SDS011;5288;42.334;23.876;2023-06-24T11:02:34;7.80;;;7.07;;
10481;SDS011;5288;42.334;23.876;2023-06-24T11:05:02;8.88;;;8.02;;
10481;SDS011;5288;42.334;23.876;2023-06-24T11:07:31;10.30;;;8.52;;
10481;SDS011;5288;42.334;23.876;2023-06-24T11:10:02;9.93;;;8.35;;
10481;SDS011;5288;42.334;23.876;2023-06-24T11:12:31;8.98;;;8.05;;
10481;SDS011;5288;42.334;23.876;2023-06-24T11:14:59;10.13;;;7.82;;
10481;SDS011;5288;42.334;23.876;2023-06-24T11:17:29;8.48;;;7.60;;
10481;SDS011;5288;42.334;23.876;2023-06-24T11:19:57;9.13;;;8.20;;
10481;SDS011;5288;42.334;23.876;2023-06-24T11:22:25;14.13;;;8.25;;
10481;SDS011;5288;42.334;23.876;2023-06-24T11:24:52;8.30;;;7.50;;
10481;SDS011;5288;42.334;23.876;2023-06-24T11:27:25;8.98;;;7.80;;
10481;SDS011;5288;42.334;23.876;2023-06-24T11:29:53;9.30;;;7.65;;
10481;SDS011;5288;42.334;23.876;2023-06-24T11:32:22;8.15;;;7.45;;
10481;SDS011;5288;42.334;23.876;2023-06-24T11:34:49;9.05;;;8.15;;
10481;SDS011;5288;42.334;23.876;2023-06-24T11:37:17;11.70;;;8.00;;
10481;SDS011;5288;42.334;23.876;2023-06-24T11:39:44;8.48;;;7.75;;
10481;SDS011;5288;42.334;23.876;2023-06-24T11:42:28;8.18;;;7.35;;
10481;SDS011;5288;42.334;23.876;2023-06-24T11:44:59;8.88;;;8.02;;
10481;SDS011;5288;42.334;23.876;2023-06-24T11:47:27;8.80;;;7.28;;
10481;SDS011;5288;42.334;23.876;2023-06-24T11:49:58;7.97;;;7.38;;
10481;SDS011;5288;42.334;23.876;2023-06-24T11:52:31;8.45;;;7.65;;
10481;SDS011;5288;42.334;23.876;2023-06-24T11:54:59;8.65;;;7.90;;
10481;SDS011;5288;42.334;23.876;2023-06-24T12:00:28;8.82;;;7.53;;
10481;SDS011;5288;42.334;23.876;2023-06-24T12:02:56;7.97;;;7.30;;
10481;SDS011;5288;42.334;23.876;2023-06-24T12:05:25;7.47;;;6.78;;
10481;SDS011;5288;42.334;23.876;2023-06-24T12:07:54;15.30;;;8.70;;
10481;SDS011;5288;42.334;23.876;2023-06-24T12:10:22;8.45;;;7.65;;
10481;SDS011;5288;42.334;23.876;2023-06-24T12:12:50;9.10;;;7.53;;
10481;SDS011;5288;42.334;23.876;2023-06-24T12:15:18;7.65;;;6.85;;
10481;SDS011;5288;42.334;23.876;2023-06-24T12:17:45;8.00;;;7.20;;
10481;SDS011;5288;42.334;23.876;2023-06-24T12:20:13;10.18;;;7.57;;
10481;SDS011;5288;42.334;23.876;2023-06-24T12:22:40;7.80;;;7.00;;
10481;SDS011;5288;42.334;23.876;2023-06-24T12:25:08;13.50;;;7.45;;
10481;SDS011;5288;42.334;23.876;2023-06-24T12:27:36;7.82;;;6.97;;
10481;SDS011;5288;42.334;23.876;2023-06-24T12:30:05;7.85;;;6.22;;
10481;SDS011;5288;42.334;23.876;2023-06-24T12:32:35;6.85;;;6.25;;
10481;SDS011;5288;42.334;23.876;2023-06-24T12:35:02;7.32;;;6.72;;
10481;SDS011;5288;42.334;23.876;2023-06-24T12:37:30;7.82;;;7.15;;
10481;SDS011;5288;42.334;23.876;2023-06-24T12:39:58;7.15;;;6.45;;
10481;SDS011;5288;42.334;23.876;2023-06-24T12:42:25;7.30;;;6.60;;
10481;SDS011;5288;42.334;23.876;2023-06-24T12:44:52;7.15;;;6.35;;
10481;SDS011;5288;42.334;23.876;2023-06-24T12:47:19;9.15;;;6.97;;
10481;SDS011;5288;42.334;23.876;2023-06-24T12:49:48;7.15;;;6.45;;
10481;SDS011;5288;42.334;23.876;2023-06-24T12:52:15;7.88;;;7.18;;
10481;SDS011;5288;42.334;23.876;2023-06-24T12:54:42;7.85;;;7.15;;
10481;SDS011;5288;42.334;23.876;2023-06-24T12:57:09;9.75;;;7.13;;
10481;SDS011;5288;42.334;23.876;2023-06-24T12:59:37;9.05;;;7.65;;
10481;SDS011;5288;42.334;23.876;2023-06-24T13:02:04;7.85;;;7.22;;
10481;SDS011;5288;42.334;23.876;2023-06-24T13:04:32;8.35;;;7.65;;
10481;SDS011;5288;42.334;23.876;2023-06-24T13:07:00;8.43;;;7.60;;
10481;SDS011;5288;42.334;23.876;2023-06-24T13:09:28;8.00;;;7.40;;
10481;SDS011;5288;42.334;23.876;2023-06-24T13:11:55;9.05;;;8.05;;
10481;SDS011;5288;42.334;23.876;2023-06-24T13:14:22;8.65;;;7.85;;
10481;SDS011;5288;42.334;23.876;2023-06-24T13:16:52;9.05;;;8.25;;
10481;SDS011;5288;42.334;23.876;2023-06-24T13:19:19;10.75;;;8.55;;
10481;SDS011;5288;42.334;23.876;2023-06-24T13:21:46;9.23;;;8.30;;
10481;SDS011;5288;42.334;23.876;2023-06-24T13:24:14;9.13;;;8.13;;
10481;SDS011;5288;42.334;23.876;2023-06-24T13:26:41;8.77;;;7.97;;
10481;SDS011;5288;42.334;23.876;2023-06-24T13:29:08;9.23;;;8.40;;
10481;SDS011;5288;42.334;23.876;2023-06-24T13:31:35;8.60;;;7.80;;
10481;SDS011;5288;42.334;23.876;2023-06-24T13:34:02;8.60;;;7.80;;
10481;SDS011;5288;42.334;23.876;2023-06-24T13:36:30;8.60;;;7.72;;
10481;SDS011;5288;42.334;23.876;2023-06-24T13:39:00;9.27;;;8.38;;
10481;SDS011;5288;42.334;23.876;2023-06-24T13:41:29;9.93;;;8.93;;
10481;SDS011;5288;42.334;23.876;2023-06-24T13:43:57;9.38;;;8.68;;
10481;SDS011;5288;42.334;23.876;2023-06-24T13:46:25;13.40;;;9.00;;
10481;SDS011;5288;42.334;23.876;2023-06-24T13:48:52;9.82;;;8.82;;
10481;SDS011;5288;42.334;23.876;2023-06-24T13:51:19;9.90;;;9.00;;
10481;SDS011;5288;42.334;23.876;2023-06-24T13:53:47;10.07;;;9.15;;
10481;SDS011;5288;42.334;23.876;2023-06-24T13:56:15;10.20;;;9.27;;
10481;SDS011;5288;42.334;23.876;2023-06-24T13:58:44;10.57;;;9.68;;
10481;SDS011;5288;42.334;23.876;2023-06-24T14:01:11;10.65;;;9.52;;
10481;SDS011;5288;42.334;23.876;2023-06-24T14:03:38;10.23;;;9.30;;
10481;SDS011;5288;42.334;23.876;2023-06-24T14:06:05;10.68;;;9.63;;
10481;SDS011;5288;42.334;23.876;2023-06-24T14:08:33;11.00;;;9.50;;
10481;SDS011;5288;42.334;23.876;2023-06-24T14:11:00;11.23;;;10.02;;
10481;SDS011;5288;42.334;23.876;2023-06-24T14:13:29;11.85;;;10.02;;
10481;SDS011;5288;42.334;23.876;2023-06-24T14:15:58;11.07;;;10.02;;
10481;SDS011;5288;42.334;23.876;2023-06-24T14:18:25;11.02;;;10.13;;
10481;SDS011;5288;42.334;23.876;2023-06-24T14:20:52;10.93;;;9.82;;
10481;SDS011;5288;42.334;23.876;2023-06-24T14:23:19;11.43;;;10.27;;
10481;SDS011;5288;42.334;23.876;2023-06-24T14:25:46;11.35;;;10.25;;
10481;SDS011;5288;42.334;23.876;2023-06-24T14:28:13;11.77;;;10.57;;
10481;SDS011;5288;42.334;23.876;2023-06-24T14:30:40;12.63;;;10.50;;
10481;SDS011;5288;42.334;23.876;2023-06-24T14:33:09;12.30;;;11.18;;
10481;SDS011;5288;42.334;23.876;2023-06-24T14:35:36;22.77;;;11.98;;
10481;SDS011;5288;42.334;23.876;2023-06-24T14:38:03;11.90;;;10.75;;
10481;SDS011;5288;42.334;23.876;2023-06-24T14:40:30;12.48;;;11.25;;
10481;SDS011;5288;42.334;23.876;2023-06-24T14:42:58;11.23;;;10.10;;